sensor_id;sensor_type;location;lat;lon;timestamp;pressure;altitude;pressure_sealevel;temperature;humidity
47761;BME280;33524;55.434;38.520;2023-01-25T00:02:04;101912.53;;;-3.14;90.29
47761;BME280;33524;55.434;38.520;2023-01-25T00:04:33;101913.34;;;-3.18;90.56
47761;BME280;33524;55.434;38.520;2023-01-25T00:07:01;101915.81;;;-3.27;90.99
47761;BME280;33524;55.434;38.520;2023-01-25T00:09:29;101906.41;;;-3.28;90.72
47761;BME280;33524;55.434;38.520;2023-01-25T00:11:57;101906.47;;;-3.17;90.64
47761;BME280;33524;55.434;38.520;2023-01-25T00:14:25;101901.28;;;-3.23;90.48
47761;BME280;33524;55.434;38.520;2023-01-25T00:16:53;101904.78;;;-3.12;90.77
47761;BME280;33524;55.434;38.520;2023-01-25T00:19:21;101910.78;;;-3.18;91.11
47761;BME280;33524;55.434;38.520;2023-01-25T00:21:50;101910.69;;;-3.26;90.84
47761;BME280;33524;55.434;38.520;2023-01-25T00:24:18;101900.50;;;-3.15;90.55
47761;BME280;33524;55.434;38.520;2023-01-25T00:26:50;101902.31;;;-3.03;90.07
47761;BME280;33524;55.434;38.520;2023-01-25T00:29:21;101889.44;;;-3.03;89.98
47761;BME280;33524;55.434;38.520;2023-01-25T00:34:46;101890.31;;;-2.98;89.65
47761;BME280;33524;55.434;38.520;2023-01-25T00:37:32;101878.34;;;-2.97;89.88
47761;BME280;33524;55.434;38.520;2023-01-25T00:40:04;101874.94;;;-2.90;89.48
47761;BME280;33524;55.434;38.520;2023-01-25T00:42:32;101869.81;;;-2.86;89.13
47761;BME280;33524;55.434;38.520;2023-01-25T00:45:00;101873.28;;;-2.82;89.03
47761;BME280;33524;55.434;38.520;2023-01-25T00:47:30;101878.34;;;-2.94;89.88
47761;BME280;33524;55.434;38.520;2023-01-25T00:50:06;101873.09;;;-3.10;90.69
47761;BME280;33524;55.434;38.520;2023-01-25T00:52:36;101876.59;;;-2.98;90.28
47761;BME280;33524;55.434;38.520;2023-01-25T00:55:07;101842.91;;;-3.29;90.80
47761;BME280;33524;55.434;38.520;2023-01-25T00:57:36;101867.94;;;-3.10;90.62
47761;BME280;33524;55.434;38.520;2023-01-25T01:00:04;101873.06;;;-3.13;90.94
47761;BME280;33524;55.434;38.520;2023-01-25T01:02:32;101865.34;;;-3.11;91.13
47761;BME280;33524;55.434;38.520;2023-01-25T01:05:04;101861.06;;;-3.14;90.81
47761;BME280;33524;55.434;38.520;2023-01-25T01:07:33;101873.22;;;-2.91;90.48
47761;BME280;33524;55.434;38.520;2023-01-25T01:10:02;101876.59;;;-2.98;90.64
47761;BME280;33524;55.434;38.520;2023-01-25T01:12:30;101879.12;;;-3.03;90.95
47761;BME280;33524;55.434;38.520;2023-01-25T01:14:58;101865.44;;;-2.99;90.79
47761;BME280;33524;55.434;38.520;2023-01-25T01:17:29;101871.50;;;-2.92;90.82
47761;BME280;33524;55.434;38.520;2023-01-25T01:19:57;101861.25;;;-2.81;90.01
47761;BME280;33524;55.434;38.520;2023-01-25T01:22:25;101832.94;;;-2.83;89.61
47761;BME280;33524;55.434;38.520;2023-01-25T01:24:56;101835.47;;;-2.88;89.92
47761;BME280;33524;55.434;38.520;2023-01-25T01:27:24;101832.97;;;-2.78;89.65
47761;BME280;33524;55.434;38.520;2023-01-25T01:29:51;101831.28;;;-2.72;89.27
47761;BME280;33524;55.434;38.520;2023-01-25T01:32:20;101822.72;;;-2.71;89.15
47761;BME280;33524;55.434;38.520;2023-01-25T01:34:49;101821.88;;;-2.67;88.99
47761;BME280;33524;55.434;38.520;2023-01-25T01:37:17;101823.53;;;-2.73;89.25
47761;BME280;33524;55.434;38.520;2023-01-25T01:39:46;101819.25;;;-2.74;89.28
47761;BME280;33524;55.434;38.520;2023-01-25T01:42:13;101822.69;;;-2.77;89.45
47761;BME280;33524;55.434;38.520;2023-01-25T01:44:50;101814.97;;;-2.77;89.45
47761;BME280;33524;55.434;38.520;2023-01-25T01:47:44;101809.81;;;-2.74;89.47
47761;BME280;33524;55.434;38.520;2023-01-25T01:50:18;101805.47;;;-2.82;89.77
47761;BME280;33524;55.434;38.520;2023-01-25T01:52:48;101782.25;;;-2.93;89.55
47761;BME280;33524;55.434;38.520;2023-01-25T01:55:19;101802.91;;;-2.78;89.48
47761;BME280;33524;55.434;38.520;2023-01-25T01:57:58;101797.81;;;-2.75;89.47
47761;BME280;33524;55.434;38.520;2023-01-25T02:00:30;101792.66;;;-2.75;89.46
47761;BME280;33524;55.434;38.520;2023-01-25T02:03:03;101800.31;;;-2.84;89.88
47761;BME280;33524;55.434;38.520;2023-01-25T02:05:41;101796.88;;;-2.85;89.73
47761;BME280;33524;55.434;38.520;2023-01-25T02:08:14;101792.63;;;-2.78;89.86
47761;BME280;33524;55.434;38.520;2023-01-25T02:10:43;101800.31;;;-2.84;89.92
47761;BME280;33524;55.434;38.520;2023-01-25T02:13:11;101795.91;;;-3.03;90.58
47761;BME280;33524;55.434;38.520;2023-01-25T02:15:49;101788.28;;;-2.87;90.24
47761;BME280;33524;55.434;38.520;2023-01-25T02:18:20;101797.75;;;-2.84;90.24
47761;BME280;33524;55.434;38.520;2023-01-25T02:20:53;101800.34;;;-2.81;90.27
47761;BME280;33524;55.434;38.520;2023-01-25T02:23:38;101801.16;;;-2.91;90.41
47761;BME280;33524;55.434;38.520;2023-01-25T02:26:10;101802.87;;;-2.86;90.31
47761;BME280;33524;55.434;38.520;2023-01-25T02:28:49;101807.13;;;-2.92;90.63
47761;BME280;33524;55.434;38.520;2023-01-25T02:31:22;101806.37;;;-2.79;90.44
47761;BME280;33524;55.434;38.520;2023-01-25T02:33:54;101804.59;;;-2.85;90.59
47761;BME280;33524;55.434;38.520;2023-01-25T02:36:28;101808.09;;;-2.75;90.54
47761;BME280;33524;55.434;38.520;2023-01-25T02:39:11;101805.50;;;-2.73;90.35
47761;BME280;33524;55.434;38.520;2023-01-25T02:41:42;101806.37;;;-2.79;90.56
47761;BME280;33524;55.434;38.520;2023-01-25T02:44:16;101802.09;;;-2.72;90.02
47761;BME280;33524;55.434;38.520;2023-01-25T02:46:45;101790.06;;;-2.75;89.65
47761;BME280;33524;55.434;38.520;2023-01-25T02:49:15;101793.50;;;-2.70;89.58
47761;BME280;33524;55.434;38.520;2023-01-25T02:51:46;101789.22;;;-2.72;89.63
47761;BME280;33524;55.434;38.520;2023-01-25T02:54:16;101787.50;;;-2.75;89.85
47761;BME280;33524;55.434;38.520;2023-01-25T02:56:47;101786.63;;;-2.74;89.87
47761;BME280;33524;55.434;38.520;2023-01-25T02:59:15;101797.75;;;-2.82;90.48
47761;BME280;33524;55.434;38.520;2023-01-25T03:01:46;101801.19;;;-2.85;90.65
47761;BME280;33524;55.434;38.520;2023-01-25T03:04:15;101812.38;;;-2.78;90.40
47761;BME280;33524;55.434;38.520;2023-01-25T03:06:43;101799.41;;;-2.92;90.87
47761;BME280;33524;55.434;38.520;2023-01-25T03:09:11;101793.50;;;-2.79;90.45
47761;BME280;33524;55.434;38.520;2023-01-25T03:11:40;101789.22;;;-2.74;89.75
47761;BME280;33524;55.434;38.520;2023-01-25T03:14:08;101790.09;;;-2.69;89.36
47761;BME280;33524;55.434;38.520;2023-01-25T03:16:36;101797.78;;;-2.81;89.60
47761;BME280;33524;55.434;38.520;2023-01-25T03:19:08;101796.06;;;-2.76;89.84
47761;BME280;33524;55.434;38.520;2023-01-25T03:21:40;101791.75;;;-2.83;89.66
47761;BME280;33524;55.434;38.520;2023-01-25T03:24:09;101807.97;;;-2.99;90.59
47761;BME280;33524;55.434;38.520;2023-01-25T03:26:39;101809.56;;;-3.12;91.20
47761;BME280;33524;55.434;38.520;2023-01-25T03:29:26;101814.72;;;-3.14;91.11
47761;BME280;33524;55.434;38.520;2023-01-25T03:31:57;101799.28;;;-3.11;91.40
47761;BME280;33524;55.434;38.520;2023-01-25T03:34:26;101786.50;;;-2.97;90.62
47761;BME280;33524;55.434;38.520;2023-01-25T03:36:56;101797.75;;;-2.87;90.18
47761;BME280;33524;55.434;38.520;2023-01-25T03:39:24;101797.75;;;-2.84;89.91
47761;BME280;33524;55.434;38.520;2023-01-25T03:41:52;101787.44;;;-2.84;89.69
47761;BME280;33524;55.434;38.520;2023-01-25T03:44:21;101780.56;;;-2.91;89.77
47761;BME280;33524;55.434;38.520;2023-01-25T03:46:49;101784.00;;;-2.89;89.86
47761;BME280;33524;55.434;38.520;2023-01-25T03:49:17;101785.69;;;-2.88;89.84
47761;BME280;33524;55.434;38.520;2023-01-25T03:51:45;101796.03;;;-2.85;89.78
47761;BME280;33524;55.434;38.520;2023-01-25T03:54:14;101791.75;;;-2.83;89.64
47761;BME280;33524;55.434;38.520;2023-01-25T03:56:42;101785.63;;;-3.00;90.05
47761;BME280;33524;55.434;38.520;2023-01-25T03:59:11;101785.69;;;-2.93;90.28
47761;BME280;33524;55.434;38.520;2023-01-25T04:01:39;101781.34;;;-3.03;90.85
47761;BME280;33524;55.434;38.520;2023-01-25T04:04:07;101785.56;;;-3.16;91.25
47761;BME280;33524;55.434;38.520;2023-01-25T04:06:37;101774.44;;;-3.04;91.04
47761;BME280;33524;55.434;38.520;2023-01-25T04:09:05;101775.25;;;-3.13;91.19
47761;BME280;33524;55.434;38.520;2023-01-25T04:11:34;101782.19;;;-3.01;90.95
47761;BME280;33524;55.434;38.520;2023-01-25T04:14:03;101775.34;;;-2.99;91.21
47761;BME280;33524;55.434;38.520;2023-01-25T04:16:32;101777.06;;;-2.96;90.98
47761;BME280;33524;55.434;38.520;2023-01-25T04:19:01;101767.62;;;-2.96;90.87
47761;BME280;33524;55.434;38.520;2023-01-25T04:21:29;101766.81;;;-2.93;90.30
47761;BME280;33524;55.434;38.520;2023-01-25T04:23:57;101768.47;;;-2.98;90.63
47761;BME280;33524;55.434;38.520;2023-01-25T04:26:27;101770.19;;;-3.00;91.14
47761;BME280;33524;55.434;38.520;2023-01-25T04:28:56;101766.81;;;-2.93;90.83
47761;BME280;33524;55.434;38.520;2023-01-25T04:31:24;101767.66;;;-2.93;90.27
47761;BME280;33524;55.434;38.520;2023-01-25T04:33:54;101766.78;;;-2.96;90.71
47761;BME280;33524;55.434;38.520;2023-01-25T04:36:22;101763.34;;;-2.98;90.73
47761;BME280;33524;55.434;38.520;2023-01-25T04:38:53;101771.12;;;-2.89;90.25
47761;BME280;33524;55.434;38.520;2023-01-25T04:41:22;101778.84;;;-2.89;90.12
47761;BME280;33524;55.434;38.520;2023-01-25T04:43:54;101776.22;;;-2.94;90.68
47761;BME280;33524;55.434;38.520;2023-01-25T04:46:23;101777.06;;;-2.96;91.01
47761;BME280;33524;55.434;38.520;2023-01-25T04:48:53;101781.38;;;-2.94;90.91
47761;BME280;33524;55.434;38.520;2023-01-25T04:51:21;101788.28;;;-2.91;90.71
47761;BME280;33524;55.434;38.520;2023-01-25T04:53:50;101790.63;;;-3.25;91.49
47761;BME280;33524;55.434;38.520;2023-01-25T04:56:18;101782.97;;;-3.17;91.76
47761;BME280;33524;55.434;38.520;2023-01-25T04:58:46;101793.22;;;-3.22;92.04
47761;BME280;33524;55.434;38.520;2023-01-25T05:01:14;101785.56;;;-3.16;91.70
47761;BME280;33524;55.434;38.520;2023-01-25T05:03:42;101798.28;;;-3.31;92.23
47761;BME280;33524;55.434;38.520;2023-01-25T05:06:11;101782.03;;;-3.29;92.17
47761;BME280;33524;55.434;38.520;2023-01-25T05:08:39;101803.59;;;-3.07;92.02
47761;BME280;33524;55.434;38.520;2023-01-25T05:11:07;101801.06;;;-3.03;91.82
47761;BME280;33524;55.434;38.520;2023-01-25T05:13:36;101808.72;;;-3.16;91.97
47761;BME280;33524;55.434;38.520;2023-01-25T05:16:05;101822.47;;;-3.06;91.88
47761;BME280;33524;55.434;38.520;2023-01-25T05:18:35;101818.22;;;-3.02;91.46
47761;BME280;33524;55.434;38.520;2023-01-25T05:21:19;101818.28;;;-2.90;91.34
47761;BME280;33524;55.434;38.520;2023-01-25T05:24:07;101829.47;;;-2.84;90.59
47761;BME280;33524;55.434;38.520;2023-01-25T05:26:36;101823.47;;;-2.86;90.73
47761;BME280;33524;55.434;38.520;2023-01-25T05:29:23;101827.78;;;-2.83;90.95
47761;BME280;33524;55.434;38.520;2023-01-25T05:31:51;101820.09;;;-2.74;90.26
47761;BME280;33524;55.434;38.520;2023-01-25T05:34:19;101801.16;;;-2.84;90.31
47761;BME280;33524;55.434;38.520;2023-01-25T05:36:47;101819.28;;;-2.70;89.72
47761;BME280;33524;55.434;38.520;2023-01-25T05:39:16;101825.28;;;-2.68;89.50
47761;BME280;33524;55.434;38.520;2023-01-25T05:41:44;101814.94;;;-2.75;89.55
47761;BME280;33524;55.434;38.520;2023-01-25T05:44:14;101810.63;;;-2.79;89.61
47761;BME280;33524;55.434;38.520;2023-01-25T05:46:44;101805.53;;;-2.75;89.67
47761;BME280;33524;55.434;38.520;2023-01-25T05:49:12;101809.81;;;-2.72;89.49
47761;BME280;33524;55.434;38.520;2023-01-25T05:51:40;101806.41;;;-2.73;89.40
47761;BME280;33524;55.434;38.520;2023-01-25T05:54:15;101818.41;;;-2.75;90.19
47761;BME280;33524;55.434;38.520;2023-01-25T05:56:47;101814.91;;;-2.80;90.23
47761;BME280;33524;55.434;38.520;2023-01-25T05:59:16;101799.44;;;-2.89;89.72
47761;BME280;33524;55.434;38.520;2023-01-25T06:01:46;101822.66;;;-2.80;90.28
47761;BME280;33524;55.434;38.520;2023-01-25T06:04:18;101831.25;;;-2.81;90.34
47761;BME280;33524;55.434;38.520;2023-01-25T06:06:46;101820.03;;;-2.86;90.16
47761;BME280;33524;55.434;38.520;2023-01-25T06:09:15;101827.81;;;-2.78;90.15
47761;BME280;33524;55.434;38.520;2023-01-25T06:11:45;101814.97;;;-2.77;90.12
47761;BME280;33524;55.434;38.520;2023-01-25T06:14:17;101810.72;;;-2.64;89.36
47761;BME280;33524;55.434;38.520;2023-01-25T06:16:45;101806.41;;;-2.70;89.77
47761;BME280;33524;55.434;38.520;2023-01-25T06:19:15;101802.16;;;-2.65;89.78
47761;BME280;33524;55.434;38.520;2023-01-25T06:21:45;101796.13;;;-2.60;89.04
47761;BME280;33524;55.434;38.520;2023-01-25T06:24:13;101794.41;;;-2.61;89.17
47761;BME280;33524;55.434;38.520;2023-01-25T06:26:41;101790.13;;;-2.56;89.28
47761;BME280;33524;55.434;38.520;2023-01-25T06:29:09;101798.72;;;-2.54;89.24
47761;BME280;33524;55.434;38.520;2023-01-25T06:31:37;101762.66;;;-2.62;89.13
47761;BME280;33524;55.434;38.520;2023-01-25T06:34:06;101787.59;;;-2.47;89.51
47761;BME280;33524;55.434;38.520;2023-01-25T06:36:35;101772.13;;;-2.49;88.84
47761;BME280;33524;55.434;38.520;2023-01-25T06:39:07;101766.13;;;-2.40;88.38
47761;BME280;33524;55.434;38.520;2023-01-25T06:41:36;101764.44;;;-2.36;88.48
47761;BME280;33524;55.434;38.520;2023-01-25T06:44:04;101770.47;;;-2.33;90.28
47761;BME280;33524;55.434;38.520;2023-01-25T06:46:32;101770.50;;;-2.27;89.28
47761;BME280;33524;55.434;38.520;2023-01-25T06:49:01;101764.47;;;-2.26;89.26
47761;BME280;33524;55.434;38.520;2023-01-25T06:51:29;101768.78;;;-2.25;88.34
47761;BME280;33524;55.434;38.520;2023-01-25T06:54:01;101767.88;;;-2.30;88.21
47761;BME280;33524;55.434;38.520;2023-01-25T06:56:31;101764.44;;;-2.32;88.07
47761;BME280;33524;55.434;38.520;2023-01-25T06:59:00;101775.66;;;-2.27;88.31
47761;BME280;33524;55.434;38.520;2023-01-25T07:01:28;101777.34;;;-2.29;88.20
47761;BME280;33524;55.434;38.520;2023-01-25T07:03:58;101760.19;;;-2.24;87.77
47761;BME280;33524;55.434;38.520;2023-01-25T07:06:32;101780.81;;;-2.11;87.22
47761;BME280;33524;55.434;38.520;2023-01-25T07:09:07;101760.19;;;-2.25;87.09
47761;BME280;33524;55.434;38.520;2023-01-25T07:11:36;101777.41;;;-2.15;87.24
47761;BME280;33524;55.434;38.520;2023-01-25T07:14:05;101779.13;;;-2.12;87.15
47761;BME280;33524;55.434;38.520;2023-01-25T07:16:33;101767.97;;;-2.08;87.15
47761;BME280;33524;55.434;38.520;2023-01-25T07:19:06;101774.81;;;-2.01;86.71
47761;BME280;33524;55.434;38.520;2023-01-25T07:21:34;101768.81;;;-1.97;86.84
47761;BME280;33524;55.434;38.520;2023-01-25T07:24:04;101756.81;;;-1.98;86.15
47761;BME280;33524;55.434;38.520;2023-01-25T07:26:34;101778.28;;;-1.93;86.20
47761;BME280;33524;55.434;38.520;2023-01-25T07:29:02;101774.84;;;-1.93;86.28
47761;BME280;33524;55.434;38.520;2023-01-25T07:31:31;101774.84;;;-1.83;86.03
47761;BME280;33524;55.434;38.520;2023-01-25T07:34:00;101780.88;;;-1.76;85.58
47761;BME280;33524;55.434;38.520;2023-01-25T07:36:28;101782.59;;;-1.78;85.67
47761;BME280;33524;55.434;38.520;2023-01-25T07:38:57;101780.91;;;-1.77;86.09
47761;BME280;33524;55.434;38.520;2023-01-25T07:41:26;101787.75;;;-1.72;85.52
47761;BME280;33524;55.434;38.520;2023-01-25T07:43:54;101794.62;;;-1.66;85.27
47761;BME280;33524;55.434;38.520;2023-01-25T07:46:26;101790.34;;;-1.67;85.65
47761;BME280;33524;55.434;38.520;2023-01-25T07:48:54;101792.94;;;-1.73;85.22
47761;BME280;33524;55.434;38.520;2023-01-25T07:51:27;101801.50;;;-1.64;84.96
47761;BME280;33524;55.434;38.520;2023-01-25T07:54:00;101794.66;;;-1.75;85.19
47761;BME280;33524;55.434;38.520;2023-01-25T07:56:31;101788.63;;;-1.71;85.44
47761;BME280;33524;55.434;38.520;2023-01-25T07:59:00;101793.78;;;-1.71;85.50
47761;BME280;33524;55.434;38.520;2023-01-25T08:01:40;101804.97;;;-1.63;85.29
47761;BME280;33524;55.434;38.520;2023-01-25T08:04:09;101802.38;;;-1.66;84.74
47761;BME280;33524;55.434;38.520;2023-01-25T08:06:37;101794.66;;;-1.63;84.63
47761;BME280;33524;55.434;38.520;2023-01-25T08:09:15;101789.47;;;-1.66;84.55
47761;BME280;33524;55.434;38.520;2023-01-25T08:11:52;101787.78;;;-1.67;84.29
47761;BME280;33524;55.434;38.520;2023-01-25T08:14:20;101790.34;;;-1.56;84.40
47761;BME280;33524;55.434;38.520;2023-01-25T08:16:54;101793.81;;;-1.53;84.16
47761;BME280;33524;55.434;38.520;2023-01-25T08:19:24;101787.75;;;-1.47;83.97
47761;BME280;33524;55.434;38.520;2023-01-25T08:22:06;101779.16;;;-1.42;83.87
47761;BME280;33524;55.434;38.520;2023-01-25T08:24:36;101786.06;;;-1.47;83.89
47761;BME280;33524;55.434;38.520;2023-01-25T08:27:07;101781.75;;;-1.54;84.30
47761;BME280;33524;55.434;38.520;2023-01-25T08:29:37;101792.06;;;-1.60;84.67
47761;BME280;33524;55.434;38.520;2023-01-25T08:32:06;101784.34;;;-1.45;83.96
47761;BME280;33524;55.434;38.520;2023-01-25T08:34:35;101788.63;;;-1.62;84.32
47761;BME280;33524;55.434;38.520;2023-01-25T08:37:04;101786.06;;;-1.53;83.61
47761;BME280;33524;55.434;38.520;2023-01-25T08:39:39;101785.19;;;-1.52;83.46
47761;BME280;33524;55.434;38.520;2023-01-25T08:42:08;101787.75;;;-1.46;83.59
47761;BME280;33524;55.434;38.520;2023-01-25T08:44:39;101768.84;;;-1.48;83.49
47761;BME280;33524;55.434;38.520;2023-01-25T08:47:08;101774.84;;;-1.59;83.69
47761;BME280;33524;55.434;38.520;2023-01-25T08:49:40;101775.75;;;-1.53;84.05
47761;BME280;33524;55.434;38.520;2023-01-25T08:52:08;101768.87;;;-1.63;83.52
47761;BME280;33524;55.434;38.520;2023-01-25T08:54:38;101769.72;;;-1.64;83.96
47761;BME280;33524;55.434;38.520;2023-01-25T08:57:10;101769.72;;;-1.58;84.33
47761;BME280;33524;55.434;38.520;2023-01-25T08:59:43;101772.28;;;-1.59;83.71
47761;BME280;33524;55.434;38.520;2023-01-25T09:02:13;101763.69;;;-1.49;83.42
47761;BME280;33524;55.434;38.520;2023-01-25T09:04:42;101774.03;;;-1.51;83.58
47761;BME280;33524;55.434;38.520;2023-01-25T09:07:13;101761.97;;;-1.66;84.11
47761;BME280;33524;55.434;38.520;2023-01-25T09:09:47;101763.69;;;-1.42;83.67
47761;BME280;33524;55.434;38.520;2023-01-25T09:12:15;101761.09;;;-1.40;83.36
47761;BME280;33524;55.434;38.520;2023-01-25T09:14:44;101762.81;;;-1.39;83.29
47761;BME280;33524;55.434;38.520;2023-01-25T09:17:14;101749.94;;;-1.62;83.99
47761;BME280;33524;55.434;38.520;2023-01-25T09:19:46;101749.06;;;-1.56;84.44
47761;BME280;33524;55.434;38.520;2023-01-25T09:22:16;101749.94;;;-1.80;85.12
47761;BME280;33524;55.434;38.520;2023-01-25T09:24:46;101749.94;;;-1.68;85.05
47761;BME280;33524;55.434;38.520;2023-01-25T09:27:20;101719.81;;;-1.86;84.97
47761;BME280;33524;55.434;38.520;2023-01-25T09:29:52;101709.47;;;-2.34;86.68
47761;BME280;33524;55.434;38.520;2023-01-25T09:32:31;101729.28;;;-1.88;86.21
47761;BME280;33524;55.434;38.520;2023-01-25T09:35:03;101728.44;;;-1.78;85.82
47761;BME280;33524;55.434;38.520;2023-01-25T09:37:32;101724.13;;;-1.56;85.01
47761;BME280;33524;55.434;38.520;2023-01-25T09:40:01;101724.13;;;-1.50;84.43
47761;BME280;33524;55.434;38.520;2023-01-25T09:45:35;101708.66;;;-1.54;84.59
47761;BME280;33524;55.434;38.520;2023-01-25T09:48:31;101712.09;;;-1.62;84.68
47761;BME280;33524;55.434;38.520;2023-01-25T09:51:21;101704.37;;;-1.57;84.61
47761;BME280;33524;55.434;38.520;2023-01-25T09:53:59;101693.19;;;-1.74;85.19
47761;BME280;33524;55.434;38.520;2023-01-25T09:56:35;101689.75;;;-1.64;85.43
47761;BME280;33524;55.434;38.520;2023-01-25T09:59:11;101690.59;;;-1.80;85.92
47761;BME280;33524;55.434;38.520;2023-01-25T10:02:30;101672.56;;;-1.82;86.12
47761;BME280;33524;55.434;38.520;2023-01-25T10:05:21;101672.53;;;-1.59;85.43
47761;BME280;33524;55.434;38.520;2023-01-25T10:08:04;101674.25;;;-1.49;84.95
47761;BME280;33524;55.434;38.520;2023-01-25T10:10:38;101669.09;;;-1.58;85.04
47761;BME280;33524;55.434;38.520;2023-01-25T10:13:14;101663.91;;;-1.50;84.90
47761;BME280;33524;55.434;38.520;2023-01-25T10:15:54;101655.31;;;-1.48;85.14
47761;BME280;33524;55.434;38.520;2023-01-25T10:21:16;101653.59;;;-1.52;85.17
47761;BME280;33524;55.434;38.520;2023-01-25T10:24:05;101644.19;;;-1.77;85.93
47761;BME280;33524;55.434;38.520;2023-01-25T10:26:43;101651.00;;;-1.53;85.44
47761;BME280;33524;55.434;38.520;2023-01-25T10:29:28;101646.72;;;-1.56;85.20
47761;BME280;33524;55.434;38.520;2023-01-25T10:32:29;101639.00;;;-1.76;86.18
47761;BME280;33524;55.434;38.520;2023-01-25T10:35:21;101629.53;;;-1.60;85.75
47761;BME280;33524;55.434;38.520;2023-01-25T10:38:35;101635.56;;;-1.55;85.53
47761;BME280;33524;55.434;38.520;2023-01-25T10:41:19;101628.72;;;-1.79;85.82
47761;BME280;33524;55.434;38.520;2023-01-25T10:43:53;101626.94;;;-1.60;85.62
47761;BME280;33524;55.434;38.520;2023-01-25T10:46:40;101626.97;;;-1.66;85.65
47761;BME280;33524;55.434;38.520;2023-01-25T10:52:17;101612.38;;;-1.83;85.91
47761;BME280;33524;55.434;38.520;2023-01-25T10:57:49;101607.25;;;-1.98;87.04
47761;BME280;33524;55.434;38.520;2023-01-25T11:03:02;101607.28;;;-2.04;87.60
47761;BME280;33524;55.434;38.520;2023-01-25T11:05:36;101603.78;;;-1.85;87.11
47761;BME280;33524;55.434;38.520;2023-01-25T11:10:48;101595.16;;;-1.68;86.51
47761;BME280;33524;55.434;38.520;2023-01-25T11:13:22;101590.88;;;-1.69;86.42
47761;BME280;33524;55.434;38.520;2023-01-25T11:18:33;101595.19;;;-1.77;86.92
47761;BME280;33524;55.434;38.520;2023-01-25T11:21:25;101598.69;;;-2.06;88.49
47761;BME280;33524;55.434;38.520;2023-01-25T11:26:40;101598.63;;;-1.85;87.79
47761;BME280;33524;55.434;38.520;2023-01-25T11:29:20;101598.66;;;-1.94;87.94
47761;BME280;33524;55.434;38.520;2023-01-25T11:31:54;101597.78;;;-1.88;87.54
47761;BME280;33524;55.434;38.520;2023-01-25T11:34:29;101590.09;;;-2.24;88.49
47761;BME280;33524;55.434;38.520;2023-01-25T11:42:58;101589.22;;;-2.24;88.95
47761;BME280;33524;55.434;38.520;2023-01-25T11:48:32;101596.09;;;-2.32;90.05
47761;BME280;33524;55.434;38.520;2023-01-25T11:54:22;101581.50;;;-2.26;89.35
47761;BME280;33524;55.434;38.520;2023-01-25T12:03:00;101570.31;;;-1.98;87.52
47761;BME280;33524;55.434;38.520;2023-01-25T12:06:06;101562.53;;;-1.81;87.11
47761;BME280;33524;55.434;38.520;2023-01-25T12:12:03;101550.56;;;-2.13;86.37
47761;BME280;33524;55.434;38.520;2023-01-25T12:17:41;101550.56;;;-2.32;87.51
47761;BME280;33524;55.434;38.520;2023-01-25T12:23:47;101560.00;;;-2.09;86.74
47761;BME280;33524;55.434;38.520;2023-01-25T12:26:26;101557.41;;;-2.03;86.82
47761;BME280;33524;55.434;38.520;2023-01-25T12:29:38;101557.44;;;-2.15;87.41
47761;BME280;33524;55.434;38.520;2023-01-25T12:32:38;101563.47;;;-2.09;87.05
47761;BME280;33524;55.434;38.520;2023-01-25T12:35:56;101554.84;;;-2.08;87.43
47761;BME280;33524;55.434;38.520;2023-01-25T12:38:41;101555.72;;;-2.18;87.64
47761;BME280;33524;55.434;38.520;2023-01-25T12:44:11;101557.44;;;-2.12;87.83
47761;BME280;33524;55.434;38.520;2023-01-25T12:46:42;101558.31;;;-2.10;88.49
47761;BME280;33524;55.434;38.520;2023-01-25T12:52:36;101554.00;;;-2.36;88.93
47761;BME280;33524;55.434;38.520;2023-01-25T12:55:16;101551.44;;;-2.57;89.14
47761;BME280;33524;55.434;38.520;2023-01-25T13:07:43;101535.13;;;-2.27;88.39
47761;BME280;33524;55.434;38.520;2023-01-25T13:10:29;101523.09;;;-2.14;88.03
47761;BME280;33524;55.434;38.520;2023-01-25T13:13:23;101529.94;;;-2.26;88.30
47761;BME280;33524;55.434;38.520;2023-01-25T13:15:56;101528.22;;;-2.14;88.03
47761;BME280;33524;55.434;38.520;2023-01-25T13:18:52;101514.50;;;-2.18;88.10
47761;BME280;33524;55.434;38.520;2023-01-25T13:24:23;101526.53;;;-2.31;88.27
47761;BME280;33524;55.434;38.520;2023-01-25T13:32:14;101517.06;;;-2.16;88.02
47761;BME280;33524;55.434;38.520;2023-01-25T13:35:26;101510.19;;;-2.14;87.47
47761;BME280;33524;55.434;38.520;2023-01-25T13:38:35;101511.91;;;-2.26;87.82
47761;BME280;33524;55.434;38.520;2023-01-25T13:41:14;101499.91;;;-2.20;86.84
47761;BME280;33524;55.434;38.520;2023-01-25T13:44:08;101496.47;;;-2.21;86.96
47761;BME280;33524;55.434;38.520;2023-01-25T13:46:45;101471.56;;;-2.42;86.69
47761;BME280;33524;55.434;38.520;2023-01-25T13:49:21;101493.91;;;-2.42;87.17
47761;BME280;33524;55.434;38.520;2023-01-25T13:51:58;101495.63;;;-2.46;86.75
47761;BME280;33524;55.434;38.520;2023-01-25T13:54:26;101487.91;;;-2.48;87.10
47761;BME280;33524;55.434;38.520;2023-01-25T13:57:05;101490.50;;;-2.49;87.07
47761;BME280;33524;55.434;38.520;2023-01-25T13:59:41;101491.31;;;-2.32;86.64
47761;BME280;33524;55.434;38.520;2023-01-25T14:02:22;101482.72;;;-2.28;86.49
47761;BME280;33524;55.434;38.520;2023-01-25T14:04:53;101473.28;;;-2.29;86.36
47761;BME280;33524;55.434;38.520;2023-01-25T14:07:33;101475.84;;;-2.32;86.26
47761;BME280;33524;55.434;38.520;2023-01-25T14:10:19;101468.97;;;-2.28;85.86
47761;BME280;33524;55.434;38.520;2023-01-25T14:12:58;101464.69;;;-2.34;85.93
47761;BME280;33524;55.434;38.520;2023-01-25T14:15:32;101444.97;;;-2.44;86.08
47761;BME280;33524;55.434;38.520;2023-01-25T14:18:18;101463.84;;;-2.34;85.75
47761;BME280;33524;55.434;38.520;2023-01-25T14:21:09;101461.28;;;-2.33;85.97
47761;BME280;33524;55.434;38.520;2023-01-25T14:23:39;101452.69;;;-2.36;85.94
47761;BME280;33524;55.434;38.520;2023-01-25T14:26:25;101449.25;;;-2.43;86.28
47761;BME280;33524;55.434;38.520;2023-01-25T14:28:59;101445.81;;;-2.31;86.09
47761;BME280;33524;55.434;38.520;2023-01-25T14:31:35;101440.63;;;-2.30;86.12